Terminal Aerodrome Forecast
Issued by NWS

Home | Current Version | Previous Version | Text Only | Print | Product List | Glossary On
Versions: 1 2 3 4 5 6 7 8 9 10 11 12 13
992
FTUS45 KABQ 241738
TAFGUP
TAF
KGUP 241738Z 2418/2518 22018G28KT P6SM SKC
     FM241900 24024G34KT P6SM SKC
     FM250200 23012G22KT P6SM SKC
     FM250400 22009KT P6SM SKC
     FM250900 VRB05KT P6SM SKC
     FM251700 23015G25KT P6SM SKC=

USA.gov is the U.S. government's official web portal to all federal, state and local government web resources and services.